Time;durP1;ratioP1;P1;durP2;ratioP2;P2;SDS_P1;SDS_P2;PMS_P1;PMS_P2;Temp;Humidity;BMP_temperature;BMP_pressure;BME280_temperature;BME280_humidity;BME280_pressure;Samples;Min_cycle;Max_cycle;Signal;HPM_P1;HPM_P2
2021/03/02 00:01:26;;;;;;;9.05;6.82;;;;;;;;;;6194812;23;20184;-96
2021/03/02 00:03:53;;;;;;;9.00;7.03;;;;;;;;;;6194321;23;20198;-96
2021/03/02 00:06:19;;;;;;;9.25;7.28;;;;;;;;;;6192585;23;20407;-96
2021/03/02 00:08:45;;;;;;;11.25;7.15;;;;;;;;;;6193554;23;20187;-96
2021/03/02 00:11:13;;;;;;;10.90;7.93;;;;;;;;;;6192226;23;20184;-96
2021/03/02 00:13:39;;;;;;;10.77;8.43;;;;;;;;;;6195079;23;20180;-96
2021/03/02 00:16:05;;;;;;;12.27;7.95;;;;;;;;;;6194565;23;20653;-96
2021/03/02 00:18:33;;;;;;;11.10;7.32;;;;;;;;;;6196316;23;20177;-96
2021/03/02 00:21:02;;;;;;;11.00;7.63;;;;;;;;;;6193883;23;20488;-96
2021/03/02 00:23:29;;;;;;;13.18;7.78;;;;;;;;;;6193685;23;20208;-96
2021/03/02 00:25:56;;;;;;;10.27;7.50;;;;;;;;;;6195586;23;20186;-96
2021/03/02 00:28:25;;;;;;;11.60;7.30;;;;;;;;;;6193552;23;20180;-96
2021/03/02 00:30:52;;;;;;;10.50;7.20;;;;;;;;;;6194370;23;20187;-95
2021/03/02 00:33:18;;;;;;;10.55;7.60;;;;;;;;;;6193146;23;20180;-96
2021/03/02 00:35:44;;;;;;;12.07;8.45;;;;;;;;;;6195108;23;20180;-96
2021/03/02 00:38:10;;;;;;;10.68;6.85;;;;;;;;;;6193606;23;20180;-96
2021/03/02 00:40:36;;;;;;;15.07;8.57;;;;;;;;;;6194369;23;20247;-96
2021/03/02 00:43:02;;;;;;;10.82;7.00;;;;;;;;;;6194083;23;20447;-96
2021/03/02 00:45:30;;;;;;;9.80;7.43;;;;;;;;;;6197482;23;20181;-96
2021/03/02 00:47:56;;;;;;;10.52;6.90;;;;;;;;;;6196117;23;20207;-95
2021/03/02 00:50:22;;;;;;;11.85;7.88;;;;;;;;;;6197285;23;20184;-96
2021/03/02 00:52:48;;;;;;;11.45;7.53;;;;;;;;;;6195601;23;20181;-96
2021/03/02 00:55:15;;;;;;;9.20;7.38;;;;;;;;;;6195023;23;20176;-96
2021/03/02 00:57:41;;;;;;;11.55;8.13;;;;;;;;;;6193619;23;20187;-96
2021/03/02 01:00:08;;;;;;;13.37;7.80;;;;;;;;;;6194611;23;20180;-96
2021/03/02 01:02:35;;;;;;;11.55;7.90;;;;;;;;;;6195181;23;20454;-96
2021/03/02 01:05:01;;;;;;;10.73;7.70;;;;;;;;;;6194550;23;20214;-96
2021/03/02 01:07:27;;;;;;;11.30;7.38;;;;;;;;;;6196075;23;20192;-96
2021/03/02 01:09:53;;;;;;;10.27;7.20;;;;;;;;;;6195444;23;20180;-96
2021/03/02 01:12:25;;;;;;;12.77;7.53;;;;;;;;;;6196781;23;20426;-96
2021/03/02 01:14:51;;;;;;;12.35;8.05;;;;;;;;;;6193398;23;20412;-96
2021/03/02 01:17:17;;;;;;;12.80;9.00;;;;;;;;;;6194778;23;20177;-96
2021/03/02 01:19:44;;;;;;;11.77;8.15;;;;;;;;;;6196203;23;20414;-96
2021/03/02 01:22:10;;;;;;;13.85;8.45;;;;;;;;;;6197101;23;20380;-96
2021/03/02 01:24:36;;;;;;;10.32;8.45;;;;;;;;;;6194113;23;20681;-96
2021/03/02 01:27:02;;;;;;;10.05;7.38;;;;;;;;;;6195191;23;20179;-96
2021/03/02 01:29:28;;;;;;;10.90;7.95;;;;;;;;;;6194841;23;20177;-96
2021/03/02 01:31:54;;;;;;;13.48;9.13;;;;;;;;;;6196907;23;20180;-96
2021/03/02 01:34:20;;;;;;;10.35;7.53;;;;;;;;;;6194196;23;20184;-96
2021/03/02 01:36:47;;;;;;;10.40;8.15;;;;;;;;;;6195674;23;20186;-96
2021/03/02 01:39:13;;;;;;;30.75;17.70;;;;;;;;;;6194805;23;20180;-96
2021/03/02 01:41:40;;;;;;;11.48;7.57;;;;;;;;;;6195566;23;20206;-96
2021/03/02 01:44:06;;;;;;;12.82;8.00;;;;;;;;;;6196874;23;20283;-96
2021/03/02 01:46:32;;;;;;;10.93;7.18;;;;;;;;;;6194679;23;20176;-96
2021/03/02 01:48:58;;;;;;;12.00;8.07;;;;;;;;;;6196610;23;20179;-96
2021/03/02 01:51:24;;;;;;;14.00;7.90;;;;;;;;;;6196253;23;20187;-96
2021/03/02 01:53:51;;;;;;;12.73;7.32;;;;;;;;;;6196126;23;20183;-96
2021/03/02 01:56:17;;;;;;;25.65;13.80;;;;;;;;;;6194151;23;20180;-96
2021/03/02 01:58:43;;;;;;;18.33;10.18;;;;;;;;;;6195469;23;20207;-96
2021/03/02 02:01:09;;;;;;;14.40;9.63;;;;;;;;;;6194128;23;20187;-96
2021/03/02 02:03:42;;;;;;;15.02;8.27;;;;;;;;;;6196064;23;20200;-96
2021/03/02 02:06:10;;;;;;;16.65;8.15;;;;;;;;;;6194944;23;20207;-96
2021/03/02 02:08:44;;;;;;;14.40;8.98;;;;;;;;;;6196352;23;20172;-96
2021/03/02 02:11:17;;;;;;;12.75;8.18;;;;;;;;;;6194017;23;20180;-96
2021/03/02 02:13:48;;;;;;;10.20;6.65;;;;;;;;;;6195849;23;20637;-96
2021/03/02 02:16:14;;;;;;;7.90;5.82;;;;;;;;;;6194465;23;20208;-96
2021/03/02 02:18:42;;;;;;;10.05;6.70;;;;;;;;;;6196668;23;20181;-96
2021/03/02 02:21:15;;;;;;;10.10;6.57;;;;;;;;;;6195711;23;20210;-96
2021/03/02 02:23:44;;;;;;;9.32;6.60;;;;;;;;;;6196309;23;20199;-96
2021/03/02 02:26:23;;;;;;;10.35;7.03;;;;;;;;;;6194767;23;20203;-96
2021/03/02 02:29:17;;;;;;;11.43;7.32;;;;;;;;;;6196599;23;20176;-96
2021/03/02 02:31:45;;;;;;;9.75;7.13;;;;;;;;;;6194956;23;20187;-96
2021/03/02 02:34:13;;;;;;;8.32;7.05;;;;;;;;;;6196524;23;20184;-96
2021/03/02 02:36:39;;;;;;;11.60;7.15;;;;;;;;;;6194477;23;20518;-96
2021/03/02 02:39:06;;;;;;;10.80;6.88;;;;;;;;;;6196785;23;20187;-96
2021/03/02 02:41:33;;;;;;;15.70;8.93;;;;;;;;;;6196385;23;20200;-96
2021/03/02 02:44:00;;;;;;;15.57;8.20;;;;;;;;;;6195080;23;20204;-96
2021/03/02 02:46:26;;;;;;;10.10;6.97;;;;;;;;;;6196042;23;20207;-96
2021/03/02 02:48:56;;;;;;;16.92;8.65;;;;;;;;;;6193522;23;20177;-96
2021/03/02 02:51:23;;;;;;;11.40;7.30;;;;;;;;;;6194595;23;20183;-96
2021/03/02 02:53:49;;;;;;;10.52;7.50;;;;;;;;;;6194096;23;20187;-96
2021/03/02 02:56:17;;;;;;;10.23;6.72;;;;;;;;;;6196297;23;20181;-96
2021/03/02 02:58:45;;;;;;;8.60;6.75;;;;;;;;;;6195292;23;20216;-96
2021/03/02 03:01:12;;;;;;;10.50;7.50;;;;;;;;;;6196543;23;20183;-96
2021/03/02 03:03:47;;;;;;;9.30;6.75;;;;;;;;;;6194935;23;20207;-96
2021/03/02 03:06:17;;;;;;;10.93;7.30;;;;;;;;;;6195206;23;20184;-96
2021/03/02 03:08:45;;;;;;;8.05;6.35;;;;;;;;;;6193662;23;20187;-96
2021/03/02 03:11:12;;;;;;;10.65;6.88;;;;;;;;;;6194626;23;20500;-96
2021/03/02 03:13:39;;;;;;;10.80;7.00;;;;;;;;;;6193145;23;20188;-96
2021/03/02 03:16:07;;;;;;;14.23;8.40;;;;;;;;;;6194708;23;20180;-96
2021/03/02 03:18:35;;;;;;;13.45;8.20;;;;;;;;;;6193165;23;20176;-96
2021/03/02 03:21:01;;;;;;;15.70;9.18;;;;;;;;;;6195292;23;20180;-96
2021/03/02 03:23:29;;;;;;;12.82;8.23;;;;;;;;;;6193493;23;20227;-96
2021/03/02 03:25:56;;;;;;;14.85;10.20;;;;;;;;;;6194956;23;20187;-96
2021/03/02 03:28:23;;;;;;;15.75;10.05;;;;;;;;;;6195162;23;20183;-96
2021/03/02 03:30:50;;;;;;;15.40;9.90;;;;;;;;;;6194863;23;20211;-96
2021/03/02 03:33:16;;;;;;;14.18;9.40;;;;;;;;;;6194840;23;20180;-96
2021/03/02 03:35:43;;;;;;;17.77;10.30;;;;;;;;;;6192266;23;20210;-96
2021/03/02 03:38:09;;;;;;;14.77;8.98;;;;;;;;;;6194076;23;20180;-96
2021/03/02 03:40:36;;;;;;;11.15;8.10;;;;;;;;;;6194398;23;20179;-96
2021/03/02 03:43:02;;;;;;;13.02;8.60;;;;;;;;;;6195215;23;20203;-96
2021/03/02 03:45:28;;;;;;;14.90;9.15;;;;;;;;;;6192690;23;20180;-96
2021/03/02 03:47:56;;;;;;;12.48;8.98;;;;;;;;;;6194468;23;20184;-96
2021/03/02 03:50:22;;;;;;;14.07;8.77;;;;;;;;;;6193629;23;20176;-96
2021/03/02 03:52:50;;;;;;;11.77;7.10;;;;;;;;;;6194562;23;20176;-96
2021/03/02 03:55:17;;;;;;;10.90;7.65;;;;;;;;;;6191878;23;20184;-96
2021/03/02 03:57:44;;;;;;;14.30;8.90;;;;;;;;;;6193370;23;20180;-96
2021/03/02 04:00:11;;;;;;;14.30;8.32;;;;;;;;;;6194000;23;20184;-96
2021/03/02 04:02:37;;;;;;;13.68;8.93;;;;;;;;;;6195336;23;20203;-96
2021/03/02 04:05:04;;;;;;;14.10;9.05;;;;;;;;;;6194809;23;20180;-96
2021/03/02 04:07:32;;;;;;;13.20;8.32;;;;;;;;;;6195830;23;20187;-96
2021/03/02 04:09:58;;;;;;;17.77;8.77;;;;;;;;;;6195277;23;20180;-96
2021/03/02 04:12:24;;;;;;;19.15;10.55;;;;;;;;;;6194304;23;20184;-96
2021/03/02 04:14:51;;;;;;;20.42;10.20;;;;;;;;;;6195440;23;20187;-96
2021/03/02 04:17:17;;;;;;;16.38;10.40;;;;;;;;;;6194422;23;20183;-96
2021/03/02 04:19:43;;;;;;;11.93;8.27;;;;;;;;;;6196566;23;20515;-96
2021/03/02 04:22:09;;;;;;;11.00;7.55;;;;;;;;;;6194517;23;20187;-96
2021/03/02 04:24:35;;;;;;;13.07;7.65;;;;;;;;;;6197003;23;20179;-96
2021/03/02 04:27:01;;;;;;;12.23;8.25;;;;;;;;;;6195424;23;20180;-96
2021/03/02 04:29:27;;;;;;;14.57;8.70;;;;;;;;;;6197826;23;20183;-96
2021/03/02 04:31:54;;;;;;;14.27;8.20;;;;;;;;;;6195564;23;20179;-96
2021/03/02 04:34:20;;;;;;;13.98;8.30;;;;;;;;;;6196819;23;20422;-96
2021/03/02 04:36:46;;;;;;;14.82;9.40;;;;;;;;;;6195029;23;20183;-96
2021/03/02 04:39:12;;;;;;;17.45;9.68;;;;;;;;;;6196363;23;20180;-96
2021/03/02 04:41:38;;;;;;;18.10;10.30;;;;;;;;;;6195183;23;20200;-96
2021/03/02 04:44:04;;;;;;;20.38;10.75;;;;;;;;;;6196464;23;20565;-96
2021/03/02 04:46:30;;;;;;;14.93;10.20;;;;;;;;;;6194769;23;20204;-96
2021/03/02 04:48:57;;;;;;;15.55;9.82;;;;;;;;;;6196938;23;20184;-96
2021/03/02 04:51:23;;;;;;;10.98;7.20;;;;;;;;;;6197591;23;20191;-96
2021/03/02 04:53:49;;;;;;;13.45;7.50;;;;;;;;;;6196769;23;20177;-96
2021/03/02 04:56:15;;;;;;;11.20;6.93;;;;;;;;;;6197670;23;20180;-96
2021/03/02 04:58:41;;;;;;;13.73;8.10;;;;;;;;;;6194824;23;20181;-96
2021/03/02 05:01:07;;;;;;;16.58;9.38;;;;;;;;;;6194601;23;21138;-96
2021/03/02 05:03:34;;;;;;;16.83;9.52;;;;;;;;;;6194115;23;20196;-96
2021/03/02 05:06:00;;;;;;;15.38;10.10;;;;;;;;;;6195949;23;20180;-96
2021/03/02 05:08:27;;;;;;;15.45;7.95;;;;;;;;;;6194705;23;20184;-96
2021/03/02 05:10:53;;;;;;;13.80;7.53;;;;;;;;;;6196791;23;20180;-96
2021/03/02 05:13:19;;;;;;;18.25;8.90;;;;;;;;;;6195666;23;20183;-96
2021/03/02 05:15:45;;;;;;;12.70;8.60;;;;;;;;;;6196845;23;20176;-96
2021/03/02 05:18:12;;;;;;;12.50;8.50;;;;;;;;;;6196704;23;20179;-96
2021/03/02 05:20:38;;;;;;;12.95;8.55;;;;;;;;;;6195252;23;20260;-96
2021/03/02 05:23:05;;;;;;;21.50;12.00;;;;;;;;;;6193185;23;20223;-96
2021/03/02 05:25:31;;;;;;;13.65;7.95;;;;;;;;;;6196220;23;20176;-96
2021/03/02 05:27:57;;;;;;;15.27;10.13;;;;;;;;;;6196446;23;20594;-96
2021/03/02 05:30:23;;;;;;;14.48;9.25;;;;;;;;;;6194641;23;20762;-96
2021/03/02 05:32:49;;;;;;;15.45;9.13;;;;;;;;;;6196316;23;20203;-96
2021/03/02 05:35:15;;;;;;;17.85;8.73;;;;;;;;;;6193523;23;20181;-96
2021/03/02 05:37:41;;;;;;;18.35;11.55;;;;;;;;;;6195047;23;20215;-96
2021/03/02 05:40:09;;;;;;;17.20;9.23;;;;;;;;;;6194291;23;20180;-96
2021/03/02 05:42:35;;;;;;;15.88;9.88;;;;;;;;;;6194281;23;20219;-96
2021/03/02 05:45:02;;;;;;;17.27;10.25;;;;;;;;;;6192659;23;20180;-96
2021/03/02 05:47:28;;;;;;;17.60;10.00;;;;;;;;;;6194486;23;20199;-96
2021/03/02 05:49:54;;;;;;;14.43;9.52;;;;;;;;;;6193705;23;20176;-96
2021/03/02 05:52:20;;;;;;;16.15;9.23;;;;;;;;;;6195630;23;21014;-96
2021/03/02 05:54:56;;;;;;;15.23;10.85;;;;;;;;;;6196763;23;20179;-96
2021/03/02 06:45:17;;;;;;;17.10;12.05;;;;;;;;;;6210211;23;20184;-96
2021/03/02 06:47:57;;;;;;;16.63;10.60;;;;;;;;;;6206275;23;20174;-96
2021/03/02 06:50:24;;;;;;;17.63;11.32;;;;;;;;;;6202874;23;20172;-96
2021/03/02 06:52:50;;;;;;;15.23;9.77;;;;;;;;;;6202823;23;20172;-96
2021/03/02 06:55:23;;;;;;;15.75;10.25;;;;;;;;;;6204141;23;20195;-96
2021/03/02 06:57:51;;;;;;;15.18;10.15;;;;;;;;;;6205185;23;20176;-96
2021/03/02 07:00:30;;;;;;;13.02;9.65;;;;;;;;;;6204292;23;20179;-96
2021/03/02 07:48:55;;;;;;;18.17;11.00;;;;;;;;;;6209681;23;20176;-96
2021/03/02 07:51:23;;;;;;;12.97;10.00;;;;;;;;;;6208515;23;20410;-96
2021/03/02 07:56:30;;;;;;;11.53;8.97;;;;;;;;;;6208973;23;20526;-96
2021/03/02 07:59:20;;;;;;;11.33;9.10;;;;;;;;;;6200005;23;20495;-96
2021/03/02 08:02:04;;;;;;;12.63;9.40;;;;;;;;;;6205740;23;20465;-96
2021/03/02 08:04:41;;;;;;;13.97;10.00;;;;;;;;;;6190162;23;20434;-96
2021/03/02 08:07:40;;;;;;;11.97;7.87;;;;;;;;;;6183574;23;20411;-96
2021/03/02 08:10:26;;;;;;;11.80;8.70;;;;;;;;;;6089951;23;20423;-96
2021/03/02 08:13:11;;;;;;;9.20;7.80;;;;;;;;;;6199995;23;20461;-96
2021/03/02 08:15:50;;;;;;;12.77;9.17;;;;;;;;;;6208671;23;20450;-96
2021/03/02 08:21:18;;;;;;;14.70;8.30;;;;;;;;;;6204222;23;20404;-96
2021/03/02 08:23:58;;;;;;;14.13;8.63;;;;;;;;;;6207111;23;20450;-96
2021/03/02 08:32:56;;;;;;;10.07;7.23;;;;;;;;;;6189582;23;20853;-96
2021/03/02 08:38:17;;;;;;;9.00;7.30;;;;;;;;;;6188664;23;20423;-96
2021/03/02 08:40:44;;;;;;;11.00;7.97;;;;;;;;;;6204361;23;20415;-96
2021/03/02 08:51:47;;;;;;;11.03;8.40;;;;;;;;;;6164555;23;20491;-96
2021/03/02 08:54:16;;;;;;;12.60;8.70;;;;;;;;;;6203681;23;20411;-94
2021/03/02 08:56:49;;;;;;;11.67;9.13;;;;;;;;;;6206236;23;20412;-96
2021/03/02 08:59:35;;;;;;;12.03;8.93;;;;;;;;;;6206813;23;20399;-96
2021/03/02 09:02:05;;;;;;;17.90;12.10;;;;;;;;;;6190357;23;20552;-96
2021/03/02 09:04:45;;;;;;;26.33;17.37;;;;;;;;;;6209379;23;20438;-96
2021/03/02 09:07:11;;;;;;;27.93;17.27;;;;;;;;;;6205122;23;20419;-96
2021/03/02 09:09:38;;;;;;;18.30;11.90;;;;;;;;;;6200887;23;20472;-96
2021/03/02 09:12:05;;;;;;;15.87;9.50;;;;;;;;;;6194421;23;20418;-96
2021/03/02 09:14:34;;;;;;;14.33;9.07;;;;;;;;;;6207180;23;20471;-96
2021/03/02 09:17:02;;;;;;;16.03;11.67;;;;;;;;;;6204533;23;20439;-95
2021/03/02 09:19:29;;;;;;;14.33;10.37;;;;;;;;;;6203454;23;20404;-96
2021/03/02 09:22:10;;;;;;;11.73;9.67;;;;;;;;;;6185434;23;20406;-96
2021/03/02 09:24:39;;;;;;;13.43;10.23;;;;;;;;;;6206711;23;20459;-96
2021/03/02 09:36:32;;;;;;;16.70;9.47;;;;;;;;;;6203979;23;20419;-96
2021/03/02 09:39:02;;;;;;;18.73;10.83;;;;;;;;;;6210416;23;20433;-96
2021/03/02 09:41:48;;;;;;;14.37;8.83;;;;;;;;;;6211867;23;20500;-96
2021/03/02 09:47:07;;;;;;;13.37;8.77;;;;;;;;;;6191696;23;20489;-96
2021/03/02 09:49:51;;;;;;;12.47;9.20;;;;;;;;;;6208305;23;20426;-96
2021/03/02 09:52:29;;;;;;;11.83;8.53;;;;;;;;;;6205796;23;20430;-96
2021/03/02 09:55:12;;;;;;;7.77;6.90;;;;;;;;;;6202499;23;20418;-96
2021/03/02 09:57:50;;;;;;;11.60;6.77;;;;;;;;;;6197566;23;20414;-96
2021/03/02 10:00:16;;;;;;;10.30;6.97;;;;;;;;;;6205224;23;20411;-96
2021/03/02 10:02:49;;;;;;;8.17;6.60;;;;;;;;;;6207235;23;20447;-96
2021/03/02 10:05:15;;;;;;;8.40;6.30;;;;;;;;;;6201077;23;20424;-95
2021/03/02 10:07:43;;;;;;;7.77;6.10;;;;;;;;;;6205522;23;20418;-96
2021/03/02 10:10:09;;;;;;;8.40;6.40;;;;;;;;;;6200681;23;20549;-95
2021/03/02 10:12:39;;;;;;;6.90;5.40;;;;;;;;;;6209171;23;20436;-96
2021/03/02 10:15:36;;;;;;;10.00;5.93;;;;;;;;;;6210203;23;20419;-95
2021/03/02 10:18:23;;;;;;;9.67;6.43;;;;;;;;;;6205713;23;20411;-96
2021/03/02 10:21:02;;;;;;;10.03;5.80;;;;;;;;;;6200503;23;20455;-96
2021/03/02 10:23:28;;;;;;;5.83;4.50;;;;;;;;;;6198619;23;20447;-95
2021/03/02 10:25:56;;;;;;;4.67;3.20;;;;;;;;;;6198740;23;20404;-95
2021/03/02 10:28:28;;;;;;;3.37;3.00;;;;;;;;;;6200729;23;20418;-96
2021/03/02 10:30:59;;;;;;;8.90;6.73;;;;;;;;;;6199797;23;20418;-96
2021/03/02 10:33:32;;;;;;;5.20;4.20;;;;;;;;;;6198066;23;20412;-96
2021/03/02 10:35:59;;;;;;;4.23;3.70;;;;;;;;;;6197961;23;20426;-96
2021/03/02 10:38:25;;;;;;;6.63;3.30;;;;;;;;;;6201854;23;20411;-96
2021/03/02 10:40:51;;;;;;;6.83;3.50;;;;;;;;;;6198913;23;20415;-96
2021/03/02 10:43:24;;;;;;;10.27;5.07;;;;;;;;;;6203485;23;20528;-96
2021/03/02 10:46:02;;;;;;;5.13;4.10;;;;;;;;;;6197814;23;20466;-96
2021/03/02 10:48:33;;;;;;;5.77;3.80;;;;;;;;;;6198874;23;20435;-96
2021/03/02 10:51:00;;;;;;;9.27;5.57;;;;;;;;;;6204975;23;20407;-96
2021/03/02 10:53:28;;;;;;;6.37;4.33;;;;;;;;;;6203380;23;20431;-95
2021/03/02 10:55:55;;;;;;;3.50;3.20;;;;;;;;;;6224504;23;20411;-96
2021/03/02 10:58:29;;;;;;;5.57;3.30;;;;;;;;;;6202546;23;20410;-96
2021/03/02 11:01:01;;;;;;;4.60;2.70;;;;;;;;;;6200831;23;20403;-96
2021/03/02 11:03:30;;;;;;;4.00;3.70;;;;;;;;;;6204357;23;20461;-96
2021/03/02 11:05:58;;;;;;;4.60;4.10;;;;;;;;;;6203193;23;20438;-96
2021/03/02 11:08:27;;;;;;;5.80;3.93;;;;;;;;;;6202072;23;20467;-96
2021/03/02 11:10:56;;;;;;;6.03;4.37;;;;;;;;;;6203109;23;20406;-96
2021/03/02 11:15:57;;;;;;;4.87;3.80;;;;;;;;;;6202750;23;20478;-96
2021/03/02 11:18:24;;;;;;;7.80;4.77;;;;;;;;;;6172492;23;20501;-96
2021/03/02 11:24:00;;;;;;;7.23;4.63;;;;;;;;;;6147685;23;20437;-96
2021/03/02 11:26:31;;;;;;;4.77;4.13;;;;;;;;;;6158708;23;20466;-96
2021/03/02 11:28:57;;;;;;;6.83;4.10;;;;;;;;;;6201115;23;20506;-95
2021/03/02 11:31:30;;;;;;;7.27;3.97;;;;;;;;;;6204776;23;20971;-96
2021/03/02 11:34:26;;;;;;;7.23;4.30;;;;;;;;;;6203178;23;20443;-96
2021/03/02 11:36:59;;;;;;;9.60;4.93;;;;;;;;;;6180992;23;20446;-96
2021/03/02 11:39:33;;;;;;;6.27;4.53;;;;;;;;;;6172457;23;20412;-96
2021/03/02 11:42:00;;;;;;;5.37;4.57;;;;;;;;;;6177877;23;20432;-96
2021/03/02 11:47:16;;;;;;;4.93;4.43;;;;;;;;;;6174604;23;20423;-96
2021/03/02 11:49:43;;;;;;;5.53;4.10;;;;;;;;;;6176574;23;20420;-96
2021/03/02 11:52:15;;;;;;;5.13;4.20;;;;;;;;;;6173856;23;20413;-96
2021/03/02 11:54:41;;;;;;;7.53;4.73;;;;;;;;;;6175420;23;20409;-96
2021/03/02 11:57:26;;;;;;;7.73;5.03;;;;;;;;;;6191062;23;20459;-96
2021/03/02 12:02:52;;;;;;;8.00;5.10;;;;;;;;;;6207044;23;20414;-96
2021/03/02 12:06:01;;;;;;;7.73;4.70;;;;;;;;;;6205525;23;20503;-96
2021/03/02 12:08:55;;;;;;;10.80;5.20;;;;;;;;;;6205408;23;20415;-96
2021/03/02 12:11:21;;;;;;;5.50;4.90;;;;;;;;;;6196987;23;20474;-96
2021/03/02 12:13:47;;;;;;;6.13;5.27;;;;;;;;;;6201876;23;20498;-95
2021/03/02 12:16:16;;;;;;;10.30;6.43;;;;;;;;;;6205105;23;20418;-96
2021/03/02 12:18:46;;;;;;;6.40;5.30;;;;;;;;;;6198064;23;20455;-96
2021/03/02 12:21:16;;;;;;;6.70;5.80;;;;;;;;;;6201293;23;20412;-96
2021/03/02 12:23:50;;;;;;;7.43;5.07;;;;;;;;;;6205368;23;20438;-96
2021/03/02 12:26:24;;;;;;;6.43;5.03;;;;;;;;;;6197107;23;20468;-96
2021/03/02 12:28:52;;;;;;;4.30;3.90;;;;;;;;;;6174391;23;20411;-96
2021/03/02 12:31:21;;;;;;;5.90;4.90;;;;;;;;;;6202656;23;20439;-95
2021/03/02 12:33:48;;;;;;;8.97;5.40;;;;;;;;;;6203016;23;20435;-96
2021/03/02 12:36:16;;;;;;;7.07;5.80;;;;;;;;;;6200339;23;20415;-94
2021/03/02 12:38:52;;;;;;;5.77;4.87;;;;;;;;;;6200610;23;21160;-96
2021/03/02 12:41:19;;;;;;;7.23;5.43;;;;;;;;;;6199770;23;20415;-95
2021/03/02 12:43:53;;;;;;;5.60;4.60;;;;;;;;;;6201742;23;20455;-94
2021/03/02 12:46:21;;;;;;;6.10;5.17;;;;;;;;;;6181797;23;20419;-96
2021/03/02 12:48:48;;;;;;;9.27;5.40;;;;;;;;;;6181383;23;20885;-96
2021/03/02 12:51:20;;;;;;;7.87;6.43;;;;;;;;;;6206901;23;20390;-94
2021/03/02 12:53:53;;;;;;;6.53;4.60;;;;;;;;;;6205550;23;20415;-96
2021/03/02 12:59:02;;;;;;;6.77;5.07;;;;;;;;;;6204088;23;20457;-96
2021/03/02 13:01:32;;;;;;;10.17;4.60;;;;;;;;;;6204857;23;20418;-96
2021/03/02 13:06:52;;;;;;;6.93;5.10;;;;;;;;;;6201970;23;20433;-96
2021/03/02 13:09:20;;;;;;;5.50;4.87;;;;;;;;;;6183663;23;20412;-96
2021/03/02 13:14:36;;;;;;;6.43;4.67;;;;;;;;;;6204613;23;20454;-96
2021/03/02 13:17:06;;;;;;;9.60;4.40;;;;;;;;;;6206432;23;20431;-96
2021/03/02 13:19:33;;;;;;;6.77;4.80;;;;;;;;;;6208798;23;20442;-96
2021/03/02 13:22:00;;;;;;;7.90;5.00;;;;;;;;;;6197830;23;20439;-96
2021/03/02 13:24:26;;;;;;;7.67;5.30;;;;;;;;;;6203070;23;20427;-95
2021/03/02 13:26:55;;;;;;;6.97;4.27;;;;;;;;;;6201395;23;21147;-94
2021/03/02 13:29:23;;;;;;;5.67;4.60;;;;;;;;;;6202700;23;20494;-95
2021/03/02 13:31:50;;;;;;;5.73;5.20;;;;;;;;;;6202744;23;20435;-95
2021/03/02 13:34:17;;;;;;;5.53;4.60;;;;;;;;;;6201212;23;20479;-96
2021/03/02 13:36:46;;;;;;;8.80;5.50;;;;;;;;;;6200972;23;20487;-96
2021/03/02 13:39:16;;;;;;;7.23;4.90;;;;;;;;;;6200991;23;20407;-96
2021/03/02 13:41:43;;;;;;;7.33;5.47;;;;;;;;;;6205648;23;20446;-96
2021/03/02 13:44:14;;;;;;;6.40;5.80;;;;;;;;;;6201951;23;20515;-95
2021/03/02 13:47:12;;;;;;;6.90;4.93;;;;;;;;;;6205306;23;20414;-96
2021/03/02 13:49:42;;;;;;;8.30;5.30;;;;;;;;;;6200895;23;20453;-96
2021/03/02 13:52:08;;;;;;;6.67;4.70;;;;;;;;;;6205334;23;20427;-96
2021/03/02 13:54:35;;;;;;;7.20;4.93;;;;;;;;;;6203282;23;20407;-95
2021/03/02 13:57:08;;;;;;;9.13;6.67;;;;;;;;;;6204527;23;20419;-96
2021/03/02 13:59:44;;;;;;;6.67;5.67;;;;;;;;;;6208527;23;20411;-96
2021/03/02 14:02:12;;;;;;;10.50;7.10;;;;;;;;;;6200121;23;20462;-96
2021/03/02 14:04:39;;;;;;;13.10;5.60;;;;;;;;;;6201484;23;20458;-95
2021/03/02 14:07:05;;;;;;;7.80;4.93;;;;;;;;;;6200804;23;20472;-94
2021/03/02 14:09:33;;;;;;;5.83;4.73;;;;;;;;;;6200405;23;20424;-94
2021/03/02 14:12:04;;;;;;;12.30;7.57;;;;;;;;;;6205891;23;20411;-95
2021/03/02 14:14:30;;;;;;;6.10;5.40;;;;;;;;;;6194019;23;20455;-96
2021/03/02 14:17:02;;;;;;;7.43;5.53;;;;;;;;;;6206136;23;20407;-95
2021/03/02 14:19:29;;;;;;;5.67;5.17;;;;;;;;;;6202269;23;20407;-95
2021/03/02 14:22:00;;;;;;;10.10;5.40;;;;;;;;;;6204458;23;20384;-95
2021/03/02 14:24:30;;;;;;;9.30;5.20;;;;;;;;;;6203279;23;20539;-96
2021/03/02 14:27:08;;;;;;;7.90;5.80;;;;;;;;;;6204099;23;20418;-95
2021/03/02 14:29:35;;;;;;;7.87;5.50;;;;;;;;;;6202080;23;20419;-96
2021/03/02 14:32:09;;;;;;;8.30;5.30;;;;;;;;;;6178511;23;20478;-96
2021/03/02 14:34:38;;;;;;;6.77;5.37;;;;;;;;;;6201893;23;20422;-96
2021/03/02 14:37:21;;;;;;;6.10;5.30;;;;;;;;;;6200562;23;20411;-96
2021/03/02 14:39:47;;;;;;;6.77;5.00;;;;;;;;;;6197013;23;20463;-95
2021/03/02 14:42:20;;;;;;;6.47;5.87;;;;;;;;;;6200289;23;20412;-95
2021/03/02 14:44:48;;;;;;;9.10;5.83;;;;;;;;;;6198763;23;20519;-96
2021/03/02 14:47:16;;;;;;;8.00;5.87;;;;;;;;;;6202522;23;20394;-96
2021/03/02 14:49:53;;;;;;;9.23;5.60;;;;;;;;;;6200177;23;20439;-96
2021/03/02 14:52:20;;;;;;;9.53;5.40;;;;;;;;;;6203084;23;20403;-95
2021/03/02 14:54:46;;;;;;;5.60;5.10;;;;;;;;;;6202829;23;20404;-96
2021/03/02 14:57:18;;;;;;;10.17;5.70;;;;;;;;;;6205973;23;20410;-96
2021/03/02 14:59:46;;;;;;;7.17;5.37;;;;;;;;;;6223863;23;20396;-92
2021/03/02 15:02:14;;;;;;;6.33;4.83;;;;;;;;;;6196983;23;20455;-95
2021/03/02 15:04:45;;;;;;;6.70;5.00;;;;;;;;;;6201532;23;20459;-96
2021/03/02 15:07:16;;;;;;;8.97;6.37;;;;;;;;;;6189842;23;20455;-94
2021/03/02 15:09:49;;;;;;;9.90;7.63;;;;;;;;;;6200291;23;20438;-96
2021/03/02 15:12:16;;;;;;;13.70;7.50;;;;;;;;;;6199713;23;20437;-95
2021/03/02 15:14:52;;;;;;;8.00;7.20;;;;;;;;;;6199163;23;20435;-96
2021/03/02 15:17:18;;;;;;;9.97;6.20;;;;;;;;;;6202121;23;20413;-96
2021/03/02 15:19:53;;;;;;;9.00;6.10;;;;;;;;;;6202430;23;20792;-94
2021/03/02 15:25:00;;;;;;;9.63;6.53;;;;;;;;;;6188943;23;20542;-96
2021/03/02 15:30:27;;;;;;;8.20;7.00;;;;;;;;;;6195632;23;20468;-96
2021/03/02 15:32:55;;;;;;;8.03;6.20;;;;;;;;;;6195312;23;20429;-95
2021/03/02 15:35:21;;;;;;;8.83;6.83;;;;;;;;;;6192675;23;20422;-95
2021/03/02 15:37:47;;;;;;;8.43;7.40;;;;;;;;;;6194805;23;20419;-96
2021/03/02 15:40:15;;;;;;;9.07;6.70;;;;;;;;;;6197142;23;20496;-96
2021/03/02 15:42:42;;;;;;;11.93;6.90;;;;;;;;;;6192893;23;20987;-96
2021/03/02 15:45:09;;;;;;;12.30;7.83;;;;;;;;;;6196528;23;20451;-94
2021/03/02 15:47:36;;;;;;;14.07;7.60;;;;;;;;;;6193050;23;20796;-96
2021/03/02 15:50:08;;;;;;;14.83;7.80;;;;;;;;;;6196536;23;20412;-95
2021/03/02 15:52:34;;;;;;;8.40;6.80;;;;;;;;;;6193522;23;20772;-94
2021/03/02 15:55:01;;;;;;;9.17;6.93;;;;;;;;;;6195294;23;20412;-95
2021/03/02 15:57:27;;;;;;;11.90;7.40;;;;;;;;;;6196091;23;20403;-95
2021/03/02 15:59:53;;;;;;;9.80;7.40;;;;;;;;;;6194054;23;20431;-95
2021/03/02 16:02:23;;;;;;;11.70;6.90;;;;;;;;;;6193569;23;20408;-96
2021/03/02 16:04:50;;;;;;;10.00;7.20;;;;;;;;;;6193477;23;20456;-95
2021/03/02 16:07:17;;;;;;;9.83;7.43;;;;;;;;;;6194422;23;20415;-94
2021/03/02 16:09:44;;;;;;;13.00;9.00;;;;;;;;;;6193253;23;20414;-95
2021/03/02 16:12:12;;;;;;;12.10;8.63;;;;;;;;;;6194240;23;20410;-94
2021/03/02 16:14:40;;;;;;;9.73;7.90;;;;;;;;;;6192877;23;20423;-95
2021/03/02 16:17:06;;;;;;;11.57;8.57;;;;;;;;;;6195516;23;20415;-95
2021/03/02 16:19:34;;;;;;;12.70;7.80;;;;;;;;;;6193408;23;20423;-95
2021/03/02 16:22:02;;;;;;;10.93;8.20;;;;;;;;;;6190128;23;20408;-95
2021/03/02 16:24:30;;;;;;;10.20;8.57;;;;;;;;;;6194505;23;20457;-94
2021/03/02 16:26:57;;;;;;;12.10;9.57;;;;;;;;;;6194644;23;20817;-95
2021/03/02 16:29:23;;;;;;;13.33;9.20;;;;;;;;;;6193187;23;20414;-96
2021/03/02 16:31:49;;;;;;;11.30;9.00;;;;;;;;;;6192266;23;20464;-96
2021/03/02 16:34:15;;;;;;;17.03;9.23;;;;;;;;;;6195455;23;20409;-96
2021/03/02 16:36:42;;;;;;;12.53;10.20;;;;;;;;;;6190797;23;20831;-96
2021/03/02 16:52:36;;;;;;;14.80;10.03;;;;;;;;;;6183137;23;20457;-96
2021/03/02 17:05:50;;;;;;;27.70;12.17;;;;;;;;;;6188551;23;20457;-96
2021/03/02 17:08:19;;;;;;;14.57;11.80;;;;;;;;;;6201791;23;20420;-96
2021/03/02 17:10:50;;;;;;;15.63;11.40;;;;;;;;;;6202896;23;20394;-96
2021/03/02 17:13:17;;;;;;;14.17;11.00;;;;;;;;;;6199661;23;20468;-96
2021/03/02 17:15:52;;;;;;;16.87;11.30;;;;;;;;;;6196791;23;20435;-96
2021/03/02 17:18:19;;;;;;;17.20;11.80;;;;;;;;;;6200168;23;20451;-96
2021/03/02 17:20:45;;;;;;;15.47;11.43;;;;;;;;;;6196988;23;20424;-96
2021/03/02 17:23:11;;;;;;;14.90;12.07;;;;;;;;;;6192495;23;20406;-96
2021/03/02 17:25:39;;;;;;;17.10;11.63;;;;;;;;;;6189122;23;20487;-96
2021/03/02 17:28:05;;;;;;;19.43;12.50;;;;;;;;;;6191746;23;20451;-96
2021/03/02 17:30:31;;;;;;;20.07;12.70;;;;;;;;;;6198090;23;20477;-95
2021/03/02 17:32:57;;;;;;;19.13;12.23;;;;;;;;;;6196467;23;20414;-96
2021/03/02 17:35:24;;;;;;;23.40;14.23;;;;;;;;;;6196839;23;20432;-96
2021/03/02 17:37:50;;;;;;;18.40;13.60;;;;;;;;;;6195785;23;20421;-96
2021/03/02 17:40:17;;;;;;;20.60;13.90;;;;;;;;;;6200027;23;20420;-95
2021/03/02 17:42:44;;;;;;;19.10;13.67;;;;;;;;;;6190995;23;20467;-96
2021/03/02 17:45:26;;;;;;;16.70;12.90;;;;;;;;;;6201701;23;20445;-96